sensor_id;sensor_type;location;lat;lon;timestamp;pressure;altitude;pressure_sealevel;temperature;humidity
70909;BME280;58554;52.006;5.926;2022-12-16T00:00:27;100157.88;;;-3.92;75.12
70909;BME280;58554;52.006;5.926;2022-12-16T00:02:57;100170.78;;;-3.90;75.28
70909;BME280;58554;52.006;5.926;2022-12-16T00:05:24;100171.63;;;-3.88;75.20
70909;BME280;58554;52.006;5.926;2022-12-16T00:07:51;100179.34;;;-3.83;75.43
70909;BME280;58554;52.006;5.926;2022-12-16T00:10:17;100174.13;;;-3.77;75.16
70909;BME280;58554;52.006;5.926;2022-12-16T00:12:43;100169.78;;;-3.71;75.13
70909;BME280;58554;52.006;5.926;2022-12-16T00:15:10;100161.16;;;-3.70;75.29
70909;BME280;58554;52.006;5.926;2022-12-16T00:17:37;100168.00;;;-3.66;75.40
70909;BME280;58554;52.006;5.926;2022-12-16T00:20:07;100174.84;;;-3.60;75.19
70909;BME280;58554;52.006;5.926;2022-12-16T00:22:35;100177.38;;;-3.54;75.13
70909;BME280;58554;52.006;5.926;2022-12-16T00:25:01;100176.44;;;-3.48;75.17
70909;BME280;58554;52.006;5.926;2022-12-16T00:27:28;100167.78;;;-3.44;75.37
70909;BME280;58554;52.006;5.926;2022-12-16T00:29:55;100169.50;;;-3.41;75.02
70909;BME280;58554;52.006;5.926;2022-12-16T00:32:21;100166.03;;;-3.37;75.21
70909;BME280;58554;52.006;5.926;2022-12-16T00:34:49;100172.03;;;-3.35;75.41
70909;BME280;58554;52.006;5.926;2022-12-16T00:37:18;100178.88;;;-3.31;75.45
70909;BME280;58554;52.006;5.926;2022-12-16T00:39:45;100183.13;;;-3.27;75.43
70909;BME280;58554;52.006;5.926;2022-12-16T00:42:11;100177.09;;;-3.26;75.44
70909;BME280;58554;52.006;5.926;2022-12-16T00:44:38;100171.03;;;-3.24;75.46
70909;BME280;58554;52.006;5.926;2022-12-16T00:47:04;100167.56;;;-3.21;75.35
70909;BME280;58554;52.006;5.926;2022-12-16T00:49:31;100169.28;;;-3.21;75.47
70909;BME280;58554;52.006;5.926;2022-12-16T00:51:57;100164.97;;;-3.19;75.47
70909;BME280;58554;52.006;5.926;2022-12-16T00:54:26;100166.63;;;-3.14;75.61
70909;BME280;58554;52.006;5.926;2022-12-16T00:56:53;100164.88;;;-3.10;75.33
70909;BME280;58554;52.006;5.926;2022-12-16T00:59:19;100162.25;;;-3.09;75.56
70909;BME280;58554;52.006;5.926;2022-12-16T01:01:46;100168.25;;;-3.07;75.46
70909;BME280;58554;52.006;5.926;2022-12-16T01:04:12;100171.69;;;-3.05;75.34
70909;BME280;58554;52.006;5.926;2022-12-16T01:06:39;100169.94;;;-3.03;75.53
70909;BME280;58554;52.006;5.926;2022-12-16T01:09:05;100174.25;;;-3.00;75.28
70909;BME280;58554;52.006;5.926;2022-12-16T01:11:35;100175.09;;;-2.98;75.38
70909;BME280;58554;52.006;5.926;2022-12-16T01:14:01;100170.72;;;-2.96;75.64
70909;BME280;58554;52.006;5.926;2022-12-16T01:16:28;100167.28;;;-2.96;75.50
70909;BME280;58554;52.006;5.926;2022-12-16T01:18:54;100178.47;;;-2.93;75.53
70909;BME280;58554;52.006;5.926;2022-12-16T01:21:21;100187.06;;;-2.89;75.56
70909;BME280;58554;52.006;5.926;2022-12-16T01:23:47;100186.16;;;-2.87;75.49
70909;BME280;58554;52.006;5.926;2022-12-16T01:26:16;100191.28;;;-2.82;75.49
70909;BME280;58554;52.006;5.926;2022-12-16T01:28:46;100201.59;;;-2.80;75.41
70909;BME280;58554;52.006;5.926;2022-12-16T01:31:14;100197.25;;;-2.77;75.83
70909;BME280;58554;52.006;5.926;2022-12-16T01:33:43;100201.53;;;-2.76;75.29
70909;BME280;58554;52.006;5.926;2022-12-16T01:36:09;100203.22;;;-2.73;75.45
70909;BME280;58554;52.006;5.926;2022-12-16T01:38:36;100203.22;;;-2.70;75.56
70909;BME280;58554;52.006;5.926;2022-12-16T01:41:04;100207.50;;;-2.69;75.55
70909;BME280;58554;52.006;5.926;2022-12-16T01:43:33;100214.34;;;-2.65;75.63
70909;BME280;58554;52.006;5.926;2022-12-16T01:46:07;100217.78;;;-2.63;75.44
70909;BME280;58554;52.006;5.926;2022-12-16T01:48:44;100222.88;;;-2.58;75.38
70909;BME280;58554;52.006;5.926;2022-12-16T01:51:20;100223.72;;;-2.55;75.33
70909;BME280;58554;52.006;5.926;2022-12-16T01:53:55;100216.78;;;-2.53;75.45
70909;BME280;58554;52.006;5.926;2022-12-16T01:56:27;100226.22;;;-2.49;75.60
70909;BME280;58554;52.006;5.926;2022-12-16T01:58:57;100238.25;;;-2.45;75.48
70909;BME280;58554;52.006;5.926;2022-12-16T02:01:27;100230.47;;;-2.43;75.37
70909;BME280;58554;52.006;5.926;2022-12-16T02:03:57;100227.84;;;-2.40;75.17
70909;BME280;58554;52.006;5.926;2022-12-16T02:06:27;100233.00;;;-2.37;75.52
70909;BME280;58554;52.006;5.926;2022-12-16T02:08:56;100232.94;;;-2.34;75.34
70909;BME280;58554;52.006;5.926;2022-12-16T02:11:35;100229.50;;;-2.34;75.54
70909;BME280;58554;52.006;5.926;2022-12-16T02:14:43;100226.00;;;-2.32;75.43
70909;BME280;58554;52.006;5.926;2022-12-16T02:17:28;100232.00;;;-2.28;75.41
70909;BME280;58554;52.006;5.926;2022-12-16T02:23:39;100247.41;;;-2.19;75.73
70909;BME280;58554;52.006;5.926;2022-12-16T02:27:02;100246.53;;;-2.16;75.72
70909;BME280;58554;52.006;5.926;2022-12-16T02:30:04;100249.97;;;-2.16;75.52
70909;BME280;58554;52.006;5.926;2022-12-16T02:32:47;100249.09;;;-2.15;75.74
70909;BME280;58554;52.006;5.926;2022-12-16T02:35:26;100255.09;;;-2.13;75.74
70909;BME280;58554;52.006;5.926;2022-12-16T02:38:10;100250.75;;;-2.11;75.81
70909;BME280;58554;52.006;5.926;2022-12-16T02:40:50;100249.06;;;-2.12;75.66
70909;BME280;58554;52.006;5.926;2022-12-16T02:43:33;100246.47;;;-2.12;75.83
70909;BME280;58554;52.006;5.926;2022-12-16T02:46:12;100249.06;;;-2.12;75.78
70909;BME280;58554;52.006;5.926;2022-12-16T02:48:42;100243.88;;;-2.12;75.72
70909;BME280;58554;52.006;5.926;2022-12-16T02:51:08;100249.91;;;-2.13;76.07
70909;BME280;58554;52.006;5.926;2022-12-16T02:53:37;100250.75;;;-2.11;75.70
70909;BME280;58554;52.006;5.926;2022-12-16T02:56:17;100256.78;;;-2.09;76.06
70909;BME280;58554;52.006;5.926;2022-12-16T02:58:59;100259.41;;;-2.10;75.72
70909;BME280;58554;52.006;5.926;2022-12-16T03:01:39;100252.50;;;-2.11;75.67
70909;BME280;58554;52.006;5.926;2022-12-16T03:04:20;100260.25;;;-2.10;75.74
70909;BME280;58554;52.006;5.926;2022-12-16T03:06:53;100262.84;;;-2.08;75.65
70909;BME280;58554;52.006;5.926;2022-12-16T03:09:28;100266.28;;;-2.08;75.84
70909;BME280;58554;52.006;5.926;2022-12-16T03:12:00;100268.88;;;-2.09;75.64
70909;BME280;58554;52.006;5.926;2022-12-16T03:14:33;100265.47;;;-2.13;75.50
70909;BME280;58554;52.006;5.926;2022-12-16T03:17:06;100274.13;;;-2.12;75.51
70909;BME280;58554;52.006;5.926;2022-12-16T03:19:39;100274.13;;;-2.12;75.58
70909;BME280;58554;52.006;5.926;2022-12-16T03:22:14;100274.06;;;-2.11;76.02
70909;BME280;58554;52.006;5.926;2022-12-16T03:24:45;100279.25;;;-2.11;75.71
70909;BME280;58554;52.006;5.926;2022-12-16T03:27:19;100287.91;;;-2.12;75.83
70909;BME280;58554;52.006;5.926;2022-12-16T03:29:58;100288.81;;;-2.14;75.83
70909;BME280;58554;52.006;5.926;2022-12-16T03:32:34;100283.59;;;-2.13;75.93
70909;BME280;58554;52.006;5.926;2022-12-16T03:35:11;100285.31;;;-2.12;75.89
70909;BME280;58554;52.006;5.926;2022-12-16T03:37:45;100287.91;;;-2.12;75.98
70909;BME280;58554;52.006;5.926;2022-12-16T03:40:15;100282.75;;;-2.13;75.94
70909;BME280;58554;52.006;5.926;2022-12-16T03:42:43;100287.09;;;-2.15;75.73
70909;BME280;58554;52.006;5.926;2022-12-16T03:45:13;100310.41;;;-2.15;76.03
70909;BME280;58554;52.006;5.926;2022-12-16T03:47:47;100314.72;;;-2.16;75.99
70909;BME280;58554;52.006;5.926;2022-12-16T03:50:20;100319.91;;;-2.16;76.04
70909;BME280;58554;52.006;5.926;2022-12-16T03:52:51;100317.34;;;-2.19;76.28
70909;BME280;58554;52.006;5.926;2022-12-16T03:55:18;100326.03;;;-2.23;76.30
70909;BME280;58554;52.006;5.926;2022-12-16T03:57:45;100320.91;;;-2.26;76.26
70909;BME280;58554;52.006;5.926;2022-12-16T04:00:12;100320.00;;;-2.25;76.28
70909;BME280;58554;52.006;5.926;2022-12-16T04:02:39;100324.31;;;-2.23;76.48
70909;BME280;58554;52.006;5.926;2022-12-16T04:05:06;100320.00;;;-2.25;76.44
70909;BME280;58554;52.006;5.926;2022-12-16T04:07:36;100325.19;;;-2.24;76.70
70909;BME280;58554;52.006;5.926;2022-12-16T04:10:04;100330.34;;;-2.22;76.60
70909;BME280;58554;52.006;5.926;2022-12-16T04:12:32;100317.41;;;-2.24;76.86
70909;BME280;58554;52.006;5.926;2022-12-16T04:14:59;100326.00;;;-2.22;76.74
70909;BME280;58554;52.006;5.926;2022-12-16T04:17:25;100327.75;;;-2.20;76.69
70909;BME280;58554;52.006;5.926;2022-12-16T04:19:52;100332.94;;;-2.20;77.04
70909;BME280;58554;52.006;5.926;2022-12-16T04:22:21;100331.19;;;-2.20;77.03
70909;BME280;58554;52.006;5.926;2022-12-16T04:24:52;100327.69;;;-2.17;76.99
70909;BME280;58554;52.006;5.926;2022-12-16T04:27:19;100330.28;;;-2.16;77.02
70909;BME280;58554;52.006;5.926;2022-12-16T04:29:46;100334.56;;;-2.15;76.89
70909;BME280;58554;52.006;5.926;2022-12-16T04:32:12;100338.00;;;-2.13;76.96
70909;BME280;58554;52.006;5.926;2022-12-16T04:34:39;100330.22;;;-2.13;77.09
70909;BME280;58554;52.006;5.926;2022-12-16T04:37:05;100338.88;;;-2.12;77.19
70909;BME280;58554;52.006;5.926;2022-12-16T04:39:32;100343.16;;;-2.13;77.30
70909;BME280;58554;52.006;5.926;2022-12-16T04:42:01;100350.09;;;-2.13;77.45
70909;BME280;58554;52.006;5.926;2022-12-16T04:44:27;100351.84;;;-2.14;77.37
70909;BME280;58554;52.006;5.926;2022-12-16T04:46:54;100344.91;;;-2.13;77.62
70909;BME280;58554;52.006;5.926;2022-12-16T04:49:20;100357.88;;;-2.13;77.68
70909;BME280;58554;52.006;5.926;2022-12-16T04:51:47;100356.13;;;-2.13;77.65
70909;BME280;58554;52.006;5.926;2022-12-16T04:54:13;100354.38;;;-2.11;77.54
70909;BME280;58554;52.006;5.926;2022-12-16T04:56:41;100356.94;;;-2.09;77.87
70909;BME280;58554;52.006;5.926;2022-12-16T04:59:10;100355.25;;;-2.10;77.81
70909;BME280;58554;52.006;5.926;2022-12-16T05:01:37;100355.25;;;-2.10;77.84
70909;BME280;58554;52.006;5.926;2022-12-16T05:04:04;100354.38;;;-2.11;77.91
70909;BME280;58554;52.006;5.926;2022-12-16T05:06:30;100353.50;;;-2.10;77.96
70909;BME280;58554;52.006;5.926;2022-12-16T05:08:57;100366.41;;;-2.07;78.05
70909;BME280;58554;52.006;5.926;2022-12-16T05:11:24;100358.63;;;-2.05;78.02
70909;BME280;58554;52.006;5.926;2022-12-16T05:13:50;100360.38;;;-2.04;77.95
70909;BME280;58554;52.006;5.926;2022-12-16T05:16:19;100362.06;;;-2.03;78.08
70909;BME280;58554;52.006;5.926;2022-12-16T05:18:46;100366.34;;;-2.00;78.06
70909;BME280;58554;52.006;5.926;2022-12-16T05:21:13;100359.47;;;-2.02;78.00
70909;BME280;58554;52.006;5.926;2022-12-16T05:23:39;100355.19;;;-2.04;77.95
70909;BME280;58554;52.006;5.926;2022-12-16T05:26:06;100363.81;;;-2.05;78.25
70909;BME280;58554;52.006;5.926;2022-12-16T05:28:32;100362.13;;;-2.06;78.24
70909;BME280;58554;52.006;5.926;2022-12-16T05:30:58;100363.88;;;-2.08;78.23
70909;BME280;58554;52.006;5.926;2022-12-16T05:33:28;100374.25;;;-2.11;78.15
70909;BME280;58554;52.006;5.926;2022-12-16T05:35:56;100378.59;;;-2.13;78.32
70909;BME280;58554;52.006;5.926;2022-12-16T05:38:23;100384.66;;;-2.16;78.33
70909;BME280;58554;52.006;5.926;2022-12-16T05:40:49;100380.38;;;-2.18;78.55
70909;BME280;58554;52.006;5.926;2022-12-16T05:43:16;100392.44;;;-2.17;78.60
70909;BME280;58554;52.006;5.926;2022-12-16T05:45:42;100389.00;;;-2.16;78.74
70909;BME280;58554;52.006;5.926;2022-12-16T05:48:09;100395.03;;;-2.14;78.99
70909;BME280;58554;52.006;5.926;2022-12-16T05:50:38;100403.63;;;-2.14;78.91
70909;BME280;58554;52.006;5.926;2022-12-16T05:53:05;100408.81;;;-2.15;78.76
70909;BME280;58554;52.006;5.926;2022-12-16T05:55:31;100404.53;;;-2.16;78.79
70909;BME280;58554;52.006;5.926;2022-12-16T05:57:58;100410.63;;;-2.20;78.86
70909;BME280;58554;52.006;5.926;2022-12-16T06:00:24;100405.47;;;-2.25;78.51
70909;BME280;58554;52.006;5.926;2022-12-16T06:02:51;100408.09;;;-2.27;78.73
70909;BME280;58554;52.006;5.926;2022-12-16T06:05:17;100412.44;;;-2.29;78.58
70909;BME280;58554;52.006;5.926;2022-12-16T06:07:52;100415.91;;;-2.31;78.43
70909;BME280;58554;52.006;5.926;2022-12-16T06:10:19;100417.69;;;-2.38;78.28
70909;BME280;58554;52.006;5.926;2022-12-16T06:12:46;100413.44;;;-2.45;78.45
70909;BME280;58554;52.006;5.926;2022-12-16T06:15:12;100422.13;;;-2.51;78.41
70909;BME280;58554;52.006;5.926;2022-12-16T06:17:41;100421.34;;;-2.59;78.23
70909;BME280;58554;52.006;5.926;2022-12-16T06:20:09;100430.03;;;-2.66;78.54
70909;BME280;58554;52.006;5.926;2022-12-16T06:22:35;100433.53;;;-2.70;78.49
70909;BME280;58554;52.006;5.926;2022-12-16T06:25:05;100429.25;;;-2.74;78.13
70909;BME280;58554;52.006;5.926;2022-12-16T06:27:32;100426.72;;;-2.82;78.35
70909;BME280;58554;52.006;5.926;2022-12-16T06:29:59;100427.59;;;-2.88;78.03
70909;BME280;58554;52.006;5.926;2022-12-16T06:32:25;100431.97;;;-2.96;78.30
70909;BME280;58554;52.006;5.926;2022-12-16T06:34:52;100426.88;;;-3.02;78.17
70909;BME280;58554;52.006;5.926;2022-12-16T06:37:18;100432.09;;;-3.10;78.40
70909;BME280;58554;52.006;5.926;2022-12-16T06:39:45;100434.72;;;-3.14;78.34
70909;BME280;58554;52.006;5.926;2022-12-16T06:42:14;100432.16;;;-3.20;78.31
70909;BME280;58554;52.006;5.926;2022-12-16T06:44:41;100439.09;;;-3.24;78.49
70909;BME280;58554;52.006;5.926;2022-12-16T06:47:07;100439.13;;;-3.30;78.64
70909;BME280;58554;52.006;5.926;2022-12-16T06:49:34;100449.50;;;-3.33;78.45
70909;BME280;58554;52.006;5.926;2022-12-16T06:52:01;100452.06;;;-3.35;78.72
70909;BME280;58554;52.006;5.926;2022-12-16T06:54:27;100453.81;;;-3.40;78.66
70909;BME280;58554;52.006;5.926;2022-12-16T06:56:54;100463.31;;;-3.43;78.59
70909;BME280;58554;52.006;5.926;2022-12-16T06:59:23;100459.03;;;-3.48;78.88
70909;BME280;58554;52.006;5.926;2022-12-16T07:01:49;100464.22;;;-3.49;78.89
70909;BME280;58554;52.006;5.926;2022-12-16T07:04:16;100469.38;;;-3.49;78.90
70909;BME280;58554;52.006;5.926;2022-12-16T07:06:42;100476.28;;;-3.51;79.08
70909;BME280;58554;52.006;5.926;2022-12-16T07:09:09;100472.84;;;-3.53;78.92
70909;BME280;58554;52.006;5.926;2022-12-16T07:11:36;100478.00;;;-3.55;79.09
70909;BME280;58554;52.006;5.926;2022-12-16T07:14:02;100475.44;;;-3.58;79.08
70909;BME280;58554;52.006;5.926;2022-12-16T07:16:31;100493.53;;;-3.59;78.96
70909;BME280;58554;52.006;5.926;2022-12-16T07:18:58;100485.78;;;-3.61;79.16
70909;BME280;58554;52.006;5.926;2022-12-16T07:21:24;100492.69;;;-3.63;79.31
70909;BME280;58554;52.006;5.926;2022-12-16T07:23:51;100495.28;;;-3.65;79.10
70909;BME280;58554;52.006;5.926;2022-12-16T07:26:17;100496.16;;;-3.69;79.06
70909;BME280;58554;52.006;5.926;2022-12-16T07:28:44;100497.91;;;-3.71;79.16
70909;BME280;58554;52.006;5.926;2022-12-16T07:31:10;100502.19;;;-3.74;79.01
70909;BME280;58554;52.006;5.926;2022-12-16T07:33:41;100507.38;;;-3.76;79.20
70909;BME280;58554;52.006;5.926;2022-12-16T07:36:07;100507.38;;;-3.79;79.12
70909;BME280;58554;52.006;5.926;2022-12-16T07:38:34;100518.56;;;-3.80;79.17
70909;BME280;58554;52.006;5.926;2022-12-16T07:41:00;100516.84;;;-3.84;78.95
70909;BME280;58554;52.006;5.926;2022-12-16T07:43:27;100523.75;;;-3.86;79.13
70909;BME280;58554;52.006;5.926;2022-12-16T07:45:56;100524.63;;;-3.87;79.01
70909;BME280;58554;52.006;5.926;2022-12-16T07:48:23;100528.91;;;-3.88;79.05
70909;BME280;58554;52.006;5.926;2022-12-16T07:50:52;100530.66;;;-3.91;78.82
70909;BME280;58554;52.006;5.926;2022-12-16T07:53:19;100524.63;;;-3.95;78.85
70909;BME280;58554;52.006;5.926;2022-12-16T07:55:46;100527.22;;;-3.96;78.95
70909;BME280;58554;52.006;5.926;2022-12-16T07:58:12;100536.69;;;-3.97;79.09
70909;BME280;58554;52.006;5.926;2022-12-16T08:00:39;100547.03;;;-3.95;79.43
70909;BME280;58554;52.006;5.926;2022-12-16T08:03:05;100546.13;;;-3.88;79.34
70909;BME280;58554;52.006;5.926;2022-12-16T08:05:32;100556.47;;;-3.82;79.08
70909;BME280;58554;52.006;5.926;2022-12-16T08:08:01;100559.03;;;-3.74;79.15
70909;BME280;58554;52.006;5.926;2022-12-16T08:10:27;100565.03;;;-3.63;79.25
70909;BME280;58554;52.006;5.926;2022-12-16T08:12:58;100571.91;;;-3.51;79.28
70909;BME280;58554;52.006;5.926;2022-12-16T08:15:25;100567.53;;;-3.40;79.08
70909;BME280;58554;52.006;5.926;2022-12-16T08:17:52;100572.69;;;-3.32;79.02
70909;BME280;58554;52.006;5.926;2022-12-16T08:20:18;100583.03;;;-3.25;79.13
70909;BME280;58554;52.006;5.926;2022-12-16T08:22:45;100578.69;;;-3.19;79.07
70909;BME280;58554;52.006;5.926;2022-12-16T08:25:14;100582.97;;;-3.12;79.26
70909;BME280;58554;52.006;5.926;2022-12-16T08:27:42;100589.84;;;-3.07;79.09
70909;BME280;58554;52.006;5.926;2022-12-16T08:30:09;100584.66;;;-3.02;79.08
70909;BME280;58554;52.006;5.926;2022-12-16T08:32:37;100584.59;;;-2.93;79.27
70909;BME280;58554;52.006;5.926;2022-12-16T08:35:04;100602.66;;;-2.79;79.19
70909;BME280;58554;52.006;5.926;2022-12-16T08:37:30;100602.56;;;-2.64;79.39
70909;BME280;58554;52.006;5.926;2022-12-16T08:39:57;100597.28;;;-2.48;79.19
70909;BME280;58554;52.006;5.926;2022-12-16T08:42:26;100604.97;;;-2.36;79.12
70909;BME280;58554;52.006;5.926;2022-12-16T08:44:54;100597.16;;;-2.30;78.93
70909;BME280;58554;52.006;5.926;2022-12-16T08:47:20;100609.25;;;-2.29;78.90
70909;BME280;58554;52.006;5.926;2022-12-16T08:49:47;100599.75;;;-2.28;78.65
70909;BME280;58554;52.006;5.926;2022-12-16T08:52:14;100607.47;;;-2.24;78.61
70909;BME280;58554;52.006;5.926;2022-12-16T08:54:40;100618.69;;;-2.20;78.42
70909;BME280;58554;52.006;5.926;2022-12-16T08:57:07;100616.94;;;-2.19;78.32
70909;BME280;58554;52.006;5.926;2022-12-16T08:59:36;100617.78;;;-2.17;78.32
70909;BME280;58554;52.006;5.926;2022-12-16T09:02:03;100616.03;;;-2.15;78.35
70909;BME280;58554;52.006;5.926;2022-12-16T09:04:30;100629.00;;;-2.12;78.47
70909;BME280;58554;52.006;5.926;2022-12-16T09:06:56;100630.69;;;-2.11;78.50
70909;BME280;58554;52.006;5.926;2022-12-16T09:09:23;100637.63;;;-2.13;78.62
70909;BME280;58554;52.006;5.926;2022-12-16T09:11:49;100631.59;;;-2.12;78.52
70909;BME280;58554;52.006;5.926;2022-12-16T09:14:16;100640.22;;;-2.13;78.51
70909;BME280;58554;52.006;5.926;2022-12-16T09:16:45;100630.69;;;-2.13;78.49
70909;BME280;58554;52.006;5.926;2022-12-16T09:19:12;100640.19;;;-2.12;78.47
70909;BME280;58554;52.006;5.926;2022-12-16T09:21:38;100638.47;;;-2.11;78.58
70909;BME280;58554;52.006;5.926;2022-12-16T09:24:05;100649.69;;;-2.08;78.72
70909;BME280;58554;52.006;5.926;2022-12-16T09:26:32;100650.47;;;-2.01;78.68
70909;BME280;58554;52.006;5.926;2022-12-16T09:28:59;100647.84;;;-1.96;78.78
70909;BME280;58554;52.006;5.926;2022-12-16T09:31:25;100657.31;;;-1.92;78.86
70909;BME280;58554;52.006;5.926;2022-12-16T09:33:54;100658.16;;;-1.89;78.80
70909;BME280;58554;52.006;5.926;2022-12-16T09:36:21;100651.25;;;-1.87;78.49
70909;BME280;58554;52.006;5.926;2022-12-16T09:38:50;100665.94;;;-1.87;78.64
70909;BME280;58554;52.006;5.926;2022-12-16T09:41:24;100667.66;;;-1.88;78.71
70909;BME280;58554;52.006;5.926;2022-12-16T09:44:08;100668.53;;;-1.87;78.46
70909;BME280;58554;52.006;5.926;2022-12-16T09:46:51;100687.53;;;-1.87;78.53
70909;BME280;58554;52.006;5.926;2022-12-16T09:49:42;100683.19;;;-1.86;78.53
70909;BME280;58554;52.006;5.926;2022-12-16T09:52:14;100694.41;;;-1.86;78.66
70909;BME280;58554;52.006;5.926;2022-12-16T09:54:46;100694.34;;;-1.78;78.82
70909;BME280;58554;52.006;5.926;2022-12-16T09:57:14;100700.34;;;-1.67;79.27
70909;BME280;58554;52.006;5.926;2022-12-16T09:59:44;100696.75;;;-1.55;79.11
70909;BME280;58554;52.006;5.926;2022-12-16T10:02:19;100703.59;;;-1.46;78.82
70909;BME280;58554;52.006;5.926;2022-12-16T10:04:50;100697.50;;;-1.42;78.76
70909;BME280;58554;52.006;5.926;2022-12-16T10:07:19;100698.34;;;-1.38;79.05
70909;BME280;58554;52.006;5.926;2022-12-16T10:09:54;100704.38;;;-1.36;78.75
70909;BME280;58554;52.006;5.926;2022-12-16T10:12:37;100708.66;;;-1.32;78.81
70909;BME280;58554;52.006;5.926;2022-12-16T10:15:19;100712.06;;;-1.27;78.83
70909;BME280;58554;52.006;5.926;2022-12-16T10:17:56;100715.47;;;-1.22;78.86
70909;BME280;58554;52.006;5.926;2022-12-16T10:20:39;100721.47;;;-1.17;78.87
70909;BME280;58554;52.006;5.926;2022-12-16T10:23:15;100711.09;;;-1.17;78.68
70909;BME280;58554;52.006;5.926;2022-12-16T10:25:55;100716.22;;;-1.11;79.03
70909;BME280;58554;52.006;5.926;2022-12-16T10:28:41;100718.75;;;-1.03;79.25
70909;BME280;58554;52.006;5.926;2022-12-16T10:31:12;100726.41;;;-0.92;78.97
70909;BME280;58554;52.006;5.926;2022-12-16T10:33:42;100718.56;;;-0.83;78.98
70909;BME280;58554;52.006;5.926;2022-12-16T10:36:20;100721.03;;;-0.74;79.03
70909;BME280;58554;52.006;5.926;2022-12-16T10:38:50;100720.06;;;-0.65;79.21
70909;BME280;58554;52.006;5.926;2022-12-16T10:41:23;100719.13;;;-0.58;78.99
70909;BME280;58554;52.006;5.926;2022-12-16T10:43:54;100713.03;;;-0.55;78.85
70909;BME280;58554;52.006;5.926;2022-12-16T10:46:27;100706.84;;;-0.48;79.03
70909;BME280;58554;52.006;5.926;2022-12-16T10:49:00;100719.81;;;-0.44;79.00
70909;BME280;58554;52.006;5.926;2022-12-16T10:51:29;100721.50;;;-0.41;79.05
70909;BME280;58554;52.006;5.926;2022-12-16T10:54:04;100724.03;;;-0.38;78.96
70909;BME280;58554;52.006;5.926;2022-12-16T10:56:57;100721.44;;;-0.36;78.85
70909;BME280;58554;52.006;5.926;2022-12-16T10:59:34;100730.91;;;-0.31;78.78
70909;BME280;58554;52.006;5.926;2022-12-16T11:02:04;100728.25;;;-0.29;78.56
70909;BME280;58554;52.006;5.926;2022-12-16T11:04:43;100718.69;;;-0.26;78.88
70909;BME280;58554;52.006;5.926;2022-12-16T11:07:25;100723.78;;;-0.18;78.79
70909;BME280;58554;52.006;5.926;2022-12-16T11:09:54;100723.72;;;-0.12;79.07
70909;BME280;58554;52.006;5.926;2022-12-16T11:12:25;100722.78;;;-0.06;78.90
70909;BME280;58554;52.006;5.926;2022-12-16T11:14:53;100717.44;;;0.01;78.97
70909;BME280;58554;52.006;5.926;2022-12-16T11:17:22;100719.94;;;0.08;78.81
70909;BME280;58554;52.006;5.926;2022-12-16T11:20:05;100711.25;;;0.10;78.91
70909;BME280;58554;52.006;5.926;2022-12-16T11:22:39;100726.78;;;0.15;78.79
70909;BME280;58554;52.006;5.926;2022-12-16T11:25:13;100731.94;;;0.18;78.78
70909;BME280;58554;52.006;5.926;2022-12-16T11:27:41;100728.41;;;0.22;78.72
70909;BME280;58554;52.006;5.926;2022-12-16T11:30:17;100724.84;;;0.29;78.62
70909;BME280;58554;52.006;5.926;2022-12-16T11:32:49;100733.34;;;0.37;78.50
70909;BME280;58554;52.006;5.926;2022-12-16T11:35:24;100729.78;;;0.45;78.48
70909;BME280;58554;52.006;5.926;2022-12-16T11:37:56;100729.72;;;0.49;78.54
70909;BME280;58554;52.006;5.926;2022-12-16T11:40:27;100732.28;;;0.52;78.49
70909;BME280;58554;52.006;5.926;2022-12-16T11:42:55;100730.47;;;0.56;78.63
70909;BME280;58554;52.006;5.926;2022-12-16T11:45:22;100732.13;;;0.60;78.53
70909;BME280;58554;52.006;5.926;2022-12-16T11:47:52;100735.56;;;0.62;78.40
70909;BME280;58554;52.006;5.926;2022-12-16T11:50:25;100731.19;;;0.64;78.51
70909;BME280;58554;52.006;5.926;2022-12-16T11:52:58;100735.47;;;0.68;78.28
70909;BME280;58554;52.006;5.926;2022-12-16T11:55:29;100736.28;;;0.70;78.44
70909;BME280;58554;52.006;5.926;2022-12-16T11:58:03;100735.44;;;0.71;78.29
70909;BME280;58554;52.006;5.926;2022-12-16T12:00:48;100737.97;;;0.74;78.39
70909;BME280;58554;52.006;5.926;2022-12-16T12:03:24;100728.38;;;0.76;78.20
70909;BME280;58554;52.006;5.926;2022-12-16T12:05:56;100730.94;;;0.79;78.57
70909;BME280;58554;52.006;5.926;2022-12-16T12:08:40;100728.28;;;0.82;78.13
70909;BME280;58554;52.006;5.926;2022-12-16T12:11:19;100739.53;;;0.85;78.20
70909;BME280;58554;52.006;5.926;2022-12-16T12:14:00;100731.69;;;0.86;78.05
70909;BME280;58554;52.006;5.926;2022-12-16T12:16:41;100729.03;;;0.89;78.34
70909;BME280;58554;52.006;5.926;2022-12-16T12:19:23;100736.81;;;0.91;78.04
70909;BME280;58554;52.006;5.926;2022-12-16T12:22:09;100742.00;;;0.92;77.92
70909;BME280;58554;52.006;5.926;2022-12-16T12:24:52;100736.81;;;0.91;78.03
70909;BME280;58554;52.006;5.926;2022-12-16T12:27:33;100746.38;;;0.90;78.04
70909;BME280;58554;52.006;5.926;2022-12-16T12:30:10;100749.84;;;0.89;77.83
70909;BME280;58554;52.006;5.926;2022-12-16T12:32:45;100747.31;;;0.86;78.14
70909;BME280;58554;52.006;5.926;2022-12-16T12:35:38;100743.84;;;0.86;78.11
70909;BME280;58554;52.006;5.926;2022-12-16T12:38:21;100749.94;;;0.85;77.94
70909;BME280;58554;52.006;5.926;2022-12-16T12:41:04;100756.88;;;0.84;78.00
70909;BME280;58554;52.006;5.926;2022-12-16T12:43:50;100751.69;;;0.82;78.03
70909;BME280;58554;52.006;5.926;2022-12-16T12:46:31;100760.41;;;0.81;78.04
70909;BME280;58554;52.006;5.926;2022-12-16T12:49:09;100756.09;;;0.79;78.04
70909;BME280;58554;52.006;5.926;2022-12-16T12:51:50;100763.91;;;0.79;78.02
70909;BME280;58554;52.006;5.926;2022-12-16T12:54:32;100769.09;;;0.80;77.91
70909;BME280;58554;52.006;5.926;2022-12-16T12:57:09;100774.25;;;0.84;78.12
70909;BME280;58554;52.006;5.926;2022-12-16T12:59:46;100771.69;;;0.80;77.84
70909;BME280;58554;52.006;5.926;2022-12-16T13:02:23;100771.72;;;0.79;77.83
70909;BME280;58554;52.006;5.926;2022-12-16T13:04:54;100778.66;;;0.78;77.79
70909;BME280;58554;52.006;5.926;2022-12-16T13:07:23;100778.69;;;0.77;78.03
70909;BME280;58554;52.006;5.926;2022-12-16T13:10:12;100788.25;;;0.75;77.90
70909;BME280;58554;52.006;5.926;2022-12-16T13:13:25;100786.53;;;0.75;77.92
70909;BME280;58554;52.006;5.926;2022-12-16T13:15:55;100790.00;;;0.74;77.82